sensor_id;sensor_type;location;lat;lon;timestamp;P1;durP1;ratioP1;P2;durP2;ratioP2
39242;SDS011;29823;47.404;8.566;2024-03-08T00:00:05;120.10;;;40.25;;
39242;SDS011;29823;47.404;8.566;2024-03-08T00:02:39;129.80;;;41.10;;
39242;SDS011;29823;47.404;8.566;2024-03-08T00:05:07;113.32;;;37.35;;
39242;SDS011;29823;47.404;8.566;2024-03-08T00:07:35;114.88;;;38.55;;
39242;SDS011;29823;47.404;8.566;2024-03-08T00:10:03;125.85;;;42.63;;
39242;SDS011;29823;47.404;8.566;2024-03-08T00:12:32;129.43;;;40.85;;
39242;SDS011;29823;47.404;8.566;2024-03-08T00:15:00;127.93;;;41.13;;
39242;SDS011;29823;47.404;8.566;2024-03-08T00:17:28;126.40;;;39.53;;
39242;SDS011;29823;47.404;8.566;2024-03-08T00:19:56;141.43;;;42.55;;
39242;SDS011;29823;47.404;8.566;2024-03-08T00:22:23;117.82;;;40.15;;
39242;SDS011;29823;47.404;8.566;2024-03-08T00:24:51;138.85;;;41.33;;
39242;SDS011;29823;47.404;8.566;2024-03-08T00:27:19;132.02;;;42.67;;
39242;SDS011;29823;47.404;8.566;2024-03-08T00:29:49;130.18;;;40.42;;
39242;SDS011;29823;47.404;8.566;2024-03-08T00:32:16;126.50;;;40.50;;
39242;SDS011;29823;47.404;8.566;2024-03-08T00:34:44;142.50;;;40.53;;
39242;SDS011;29823;47.404;8.566;2024-03-08T00:37:12;122.95;;;39.25;;
39242;SDS011;29823;47.404;8.566;2024-03-08T00:39:40;127.72;;;40.22;;
39242;SDS011;29823;47.404;8.566;2024-03-08T00:42:08;123.55;;;37.40;;
39242;SDS011;29823;47.404;8.566;2024-03-08T00:44:36;121.80;;;36.35;;
39242;SDS011;29823;47.404;8.566;2024-03-08T00:47:05;136.10;;;39.63;;
39242;SDS011;29823;47.404;8.566;2024-03-08T00:49:33;115.80;;;38.40;;
39242;SDS011;29823;47.404;8.566;2024-03-08T00:52:03;120.22;;;38.97;;
39242;SDS011;29823;47.404;8.566;2024-03-08T00:54:32;149.80;;;42.75;;
39242;SDS011;29823;47.404;8.566;2024-03-08T00:56:59;126.45;;;39.88;;
39242;SDS011;29823;47.404;8.566;2024-03-08T00:59:29;140.88;;;42.05;;
39242;SDS011;29823;47.404;8.566;2024-03-08T01:01:59;147.02;;;41.40;;
39242;SDS011;29823;47.404;8.566;2024-03-08T01:04:28;139.32;;;41.38;;
39242;SDS011;29823;47.404;8.566;2024-03-08T01:06:56;143.23;;;42.30;;
39242;SDS011;29823;47.404;8.566;2024-03-08T01:09:24;148.57;;;42.53;;
39242;SDS011;29823;47.404;8.566;2024-03-08T01:11:53;159.73;;;41.20;;
39242;SDS011;29823;47.404;8.566;2024-03-08T01:14:21;145.38;;;42.38;;
39242;SDS011;29823;47.404;8.566;2024-03-08T01:16:52;149.30;;;40.63;;
39242;SDS011;29823;47.404;8.566;2024-03-08T01:19:21;150.95;;;39.13;;
39242;SDS011;29823;47.404;8.566;2024-03-08T01:21:51;156.15;;;41.17;;
39242;SDS011;29823;47.404;8.566;2024-03-08T01:24:19;145.93;;;42.25;;
39242;SDS011;29823;47.404;8.566;2024-03-08T01:26:46;149.77;;;41.45;;
39242;SDS011;29823;47.404;8.566;2024-03-08T01:29:14;150.82;;;41.58;;
39242;SDS011;29823;47.404;8.566;2024-03-08T01:31:42;154.18;;;41.78;;
39242;SDS011;29823;47.404;8.566;2024-03-08T01:34:09;144.02;;;39.35;;
39242;SDS011;29823;47.404;8.566;2024-03-08T01:36:37;142.63;;;44.42;;
39242;SDS011;29823;47.404;8.566;2024-03-08T01:39:06;161.10;;;46.30;;
39242;SDS011;29823;47.404;8.566;2024-03-08T01:41:35;150.63;;;44.47;;
39242;SDS011;29823;47.404;8.566;2024-03-08T01:44:03;168.75;;;45.20;;
39242;SDS011;29823;47.404;8.566;2024-03-08T01:46:33;158.82;;;44.75;;
39242;SDS011;29823;47.404;8.566;2024-03-08T01:49:02;146.00;;;45.63;;
39242;SDS011;29823;47.404;8.566;2024-03-08T01:51:30;146.95;;;44.22;;
39242;SDS011;29823;47.404;8.566;2024-03-08T01:53:58;151.15;;;41.42;;
39242;SDS011;29823;47.404;8.566;2024-03-08T01:56:30;160.05;;;43.92;;
39242;SDS011;29823;47.404;8.566;2024-03-08T01:58:58;146.77;;;44.90;;
39242;SDS011;29823;47.404;8.566;2024-03-08T02:01:27;135.77;;;41.50;;
39242;SDS011;29823;47.404;8.566;2024-03-08T02:03:55;146.95;;;42.97;;
39242;SDS011;29823;47.404;8.566;2024-03-08T02:06:23;142.93;;;41.97;;
39242;SDS011;29823;47.404;8.566;2024-03-08T02:08:50;156.25;;;44.00;;
39242;SDS011;29823;47.404;8.566;2024-03-08T02:11:18;139.38;;;41.15;;
39242;SDS011;29823;47.404;8.566;2024-03-08T02:13:48;137.00;;;42.33;;
39242;SDS011;29823;47.404;8.566;2024-03-08T02:16:20;129.88;;;41.92;;
39242;SDS011;29823;47.404;8.566;2024-03-08T02:18:47;140.97;;;41.27;;
39242;SDS011;29823;47.404;8.566;2024-03-08T02:21:17;136.18;;;41.22;;
39242;SDS011;29823;47.404;8.566;2024-03-08T02:23:45;153.25;;;44.25;;
39242;SDS011;29823;47.404;8.566;2024-03-08T02:26:13;127.38;;;39.15;;
39242;SDS011;29823;47.404;8.566;2024-03-08T02:28:41;139.07;;;42.60;;
39242;SDS011;29823;47.404;8.566;2024-03-08T02:31:10;132.75;;;40.92;;
39242;SDS011;29823;47.404;8.566;2024-03-08T02:33:38;141.23;;;40.58;;
39242;SDS011;29823;47.404;8.566;2024-03-08T02:36:06;149.77;;;42.10;;
39242;SDS011;29823;47.404;8.566;2024-03-08T02:38:36;145.70;;;41.50;;
39242;SDS011;29823;47.404;8.566;2024-03-08T02:41:04;133.98;;;41.95;;
39242;SDS011;29823;47.404;8.566;2024-03-08T02:43:32;144.45;;;43.35;;
39242;SDS011;29823;47.404;8.566;2024-03-08T02:46:00;124.00;;;41.35;;
39242;SDS011;29823;47.404;8.566;2024-03-08T02:48:28;154.82;;;43.60;;
39242;SDS011;29823;47.404;8.566;2024-03-08T02:50:55;143.55;;;42.80;;
39242;SDS011;29823;47.404;8.566;2024-03-08T02:53:23;141.82;;;43.53;;
39242;SDS011;29823;47.404;8.566;2024-03-08T02:55:53;144.80;;;44.10;;
39242;SDS011;29823;47.404;8.566;2024-03-08T02:58:21;146.65;;;43.00;;
39242;SDS011;29823;47.404;8.566;2024-03-08T03:00:49;142.15;;;43.88;;
39242;SDS011;29823;47.404;8.566;2024-03-08T03:03:17;138.57;;;41.80;;
39242;SDS011;29823;47.404;8.566;2024-03-08T03:05:44;143.73;;;44.08;;
39242;SDS011;29823;47.404;8.566;2024-03-08T03:08:14;138.57;;;42.15;;
39242;SDS011;29823;47.404;8.566;2024-03-08T03:10:43;130.13;;;40.63;;
39242;SDS011;29823;47.404;8.566;2024-03-08T03:13:13;126.25;;;41.60;;
39242;SDS011;29823;47.404;8.566;2024-03-08T03:15:41;130.13;;;42.03;;
39242;SDS011;29823;47.404;8.566;2024-03-08T03:18:09;123.93;;;40.45;;
39242;SDS011;29823;47.404;8.566;2024-03-08T03:20:38;112.32;;;40.40;;
39242;SDS011;29823;47.404;8.566;2024-03-08T03:23:09;115.97;;;39.10;;
39242;SDS011;29823;47.404;8.566;2024-03-08T03:25:41;121.38;;;40.83;;
39242;SDS011;29823;47.404;8.566;2024-03-08T03:28:09;114.93;;;38.80;;
39242;SDS011;29823;47.404;8.566;2024-03-08T03:30:39;109.95;;;37.47;;
39242;SDS011;29823;47.404;8.566;2024-03-08T03:33:07;114.10;;;38.08;;
39242;SDS011;29823;47.404;8.566;2024-03-08T03:35:35;107.63;;;38.22;;
39242;SDS011;29823;47.404;8.566;2024-03-08T03:38:04;105.15;;;37.03;;
39242;SDS011;29823;47.404;8.566;2024-03-08T03:43:03;95.03;;;36.35;;
39242;SDS011;29823;47.404;8.566;2024-03-08T03:45:31;101.65;;;36.35;;
39242;SDS011;29823;47.404;8.566;2024-03-08T03:48:05;90.55;;;35.92;;
39242;SDS011;29823;47.404;8.566;2024-03-08T03:50:36;99.50;;;35.50;;
39242;SDS011;29823;47.404;8.566;2024-03-08T03:53:04;92.90;;;35.40;;
39242;SDS011;29823;47.404;8.566;2024-03-08T03:55:36;94.85;;;33.72;;
39242;SDS011;29823;47.404;8.566;2024-03-08T03:58:06;96.00;;;35.47;;
39242;SDS011;29823;47.404;8.566;2024-03-08T04:00:33;85.60;;;33.58;;
39242;SDS011;29823;47.404;8.566;2024-03-08T04:03:01;83.97;;;33.50;;
39242;SDS011;29823;47.404;8.566;2024-03-08T04:05:30;79.25;;;31.30;;
39242;SDS011;29823;47.404;8.566;2024-03-08T04:07:58;75.05;;;31.20;;
39242;SDS011;29823;47.404;8.566;2024-03-08T04:10:25;78.70;;;31.35;;
39242;SDS011;29823;47.404;8.566;2024-03-08T04:12:53;72.40;;;30.48;;
39242;SDS011;29823;47.404;8.566;2024-03-08T04:15:21;71.68;;;29.73;;
39242;SDS011;29823;47.404;8.566;2024-03-08T04:17:49;74.97;;;30.00;;
39242;SDS011;29823;47.404;8.566;2024-03-08T04:20:17;67.00;;;28.30;;
39242;SDS011;29823;47.404;8.566;2024-03-08T04:22:46;65.53;;;27.65;;
39242;SDS011;29823;47.404;8.566;2024-03-08T04:25:15;74.15;;;30.10;;
39242;SDS011;29823;47.404;8.566;2024-03-08T04:27:43;67.70;;;28.60;;
39242;SDS011;29823;47.404;8.566;2024-03-08T04:30:12;68.97;;;27.20;;
39242;SDS011;29823;47.404;8.566;2024-03-08T04:32:39;67.18;;;28.33;;
39242;SDS011;29823;47.404;8.566;2024-03-08T04:35:09;77.95;;;29.40;;
39242;SDS011;29823;47.404;8.566;2024-03-08T04:37:39;63.85;;;27.83;;
39242;SDS011;29823;47.404;8.566;2024-03-08T04:40:08;68.68;;;28.25;;
39242;SDS011;29823;47.404;8.566;2024-03-08T04:42:36;64.47;;;28.10;;
39242;SDS011;29823;47.404;8.566;2024-03-08T04:45:04;64.55;;;26.42;;
39242;SDS011;29823;47.404;8.566;2024-03-08T04:47:34;71.00;;;28.73;;
39242;SDS011;29823;47.404;8.566;2024-03-08T04:50:03;72.68;;;29.95;;
39242;SDS011;29823;47.404;8.566;2024-03-08T04:52:31;67.85;;;27.10;;
39242;SDS011;29823;47.404;8.566;2024-03-08T04:54:59;66.05;;;28.52;;
39242;SDS011;29823;47.404;8.566;2024-03-08T04:57:28;58.33;;;26.27;;
39242;SDS011;29823;47.404;8.566;2024-03-08T04:59:55;74.13;;;28.75;;
39242;SDS011;29823;47.404;8.566;2024-03-08T05:02:25;68.50;;;27.27;;
39242;SDS011;29823;47.404;8.566;2024-03-08T05:04:53;63.88;;;27.23;;
39242;SDS011;29823;47.404;8.566;2024-03-08T05:07:20;68.00;;;28.05;;
39242;SDS011;29823;47.404;8.566;2024-03-08T05:09:48;62.97;;;26.10;;
39242;SDS011;29823;47.404;8.566;2024-03-08T05:12:18;64.18;;;26.58;;
39242;SDS011;29823;47.404;8.566;2024-03-08T05:14:47;68.47;;;28.90;;
39242;SDS011;29823;47.404;8.566;2024-03-08T05:17:16;67.47;;;27.10;;
39242;SDS011;29823;47.404;8.566;2024-03-08T05:19:44;65.25;;;26.13;;
39242;SDS011;29823;47.404;8.566;2024-03-08T05:22:12;59.45;;;25.48;;
39242;SDS011;29823;47.404;8.566;2024-03-08T05:24:39;62.40;;;26.73;;
39242;SDS011;29823;47.404;8.566;2024-03-08T05:27:07;59.30;;;26.15;;
39242;SDS011;29823;47.404;8.566;2024-03-08T05:29:35;59.83;;;26.45;;
39242;SDS011;29823;47.404;8.566;2024-03-08T05:32:05;59.67;;;26.48;;
39242;SDS011;29823;47.404;8.566;2024-03-08T05:34:33;61.80;;;24.35;;
39242;SDS011;29823;47.404;8.566;2024-03-08T05:37:01;54.50;;;24.38;;
39242;SDS011;29823;47.404;8.566;2024-03-08T05:39:28;60.55;;;25.27;;
39242;SDS011;29823;47.404;8.566;2024-03-08T05:41:56;55.30;;;23.73;;
39242;SDS011;29823;47.404;8.566;2024-03-08T05:44:24;50.58;;;23.60;;
39242;SDS011;29823;47.404;8.566;2024-03-08T05:46:55;55.38;;;23.27;;
39242;SDS011;29823;47.404;8.566;2024-03-08T05:49:24;55.40;;;24.45;;
39242;SDS011;29823;47.404;8.566;2024-03-08T05:51:52;48.05;;;23.00;;
39242;SDS011;29823;47.404;8.566;2024-03-08T05:54:20;59.03;;;24.25;;
39242;SDS011;29823;47.404;8.566;2024-03-08T05:56:51;51.10;;;23.30;;
39242;SDS011;29823;47.404;8.566;2024-03-08T05:59:19;48.92;;;22.58;;
39242;SDS011;29823;47.404;8.566;2024-03-08T06:01:46;51.60;;;23.15;;
39242;SDS011;29823;47.404;8.566;2024-03-08T06:04:15;53.67;;;22.00;;
39242;SDS011;29823;47.404;8.566;2024-03-08T06:06:45;58.72;;;24.13;;
39242;SDS011;29823;47.404;8.566;2024-03-08T06:09:17;59.45;;;23.58;;
39242;SDS011;29823;47.404;8.566;2024-03-08T06:11:50;48.55;;;21.65;;
39242;SDS011;29823;47.404;8.566;2024-03-08T06:14:18;54.20;;;22.45;;
39242;SDS011;29823;47.404;8.566;2024-03-08T06:16:46;50.33;;;22.73;;
39242;SDS011;29823;47.404;8.566;2024-03-08T06:19:16;53.33;;;23.77;;
39242;SDS011;29823;47.404;8.566;2024-03-08T06:21:45;50.10;;;21.85;;
39242;SDS011;29823;47.404;8.566;2024-03-08T06:24:13;55.00;;;23.48;;
39242;SDS011;29823;47.404;8.566;2024-03-08T06:26:41;52.85;;;23.02;;
39242;SDS011;29823;47.404;8.566;2024-03-08T06:29:09;54.60;;;22.92;;
39242;SDS011;29823;47.404;8.566;2024-03-08T06:31:37;51.22;;;21.98;;
39242;SDS011;29823;47.404;8.566;2024-03-08T06:34:06;53.10;;;22.15;;
39242;SDS011;29823;47.404;8.566;2024-03-08T06:36:35;51.40;;;22.35;;
39242;SDS011;29823;47.404;8.566;2024-03-08T06:39:06;54.75;;;23.98;;
39242;SDS011;29823;47.404;8.566;2024-03-08T06:44:05;50.95;;;21.52;;
39242;SDS011;29823;47.404;8.566;2024-03-08T06:46:34;51.38;;;22.35;;
39242;SDS011;29823;47.404;8.566;2024-03-08T06:49:02;53.30;;;23.00;;
39242;SDS011;29823;47.404;8.566;2024-03-08T06:51:30;55.17;;;22.35;;
39242;SDS011;29823;47.404;8.566;2024-03-08T06:53:57;64.43;;;25.23;;
39242;SDS011;29823;47.404;8.566;2024-03-08T06:56:26;52.47;;;22.42;;
39242;SDS011;29823;47.404;8.566;2024-03-08T06:58:54;59.08;;;22.02;;
39242;SDS011;29823;47.404;8.566;2024-03-08T07:01:21;51.45;;;22.15;;
39242;SDS011;29823;47.404;8.566;2024-03-08T07:03:49;54.22;;;22.30;;
39242;SDS011;29823;47.404;8.566;2024-03-08T07:06:19;54.60;;;22.80;;
39242;SDS011;29823;47.404;8.566;2024-03-08T07:08:47;49.70;;;22.23;;
39242;SDS011;29823;47.404;8.566;2024-03-08T07:11:15;57.00;;;21.52;;
39242;SDS011;29823;47.404;8.566;2024-03-08T07:13:46;47.97;;;20.75;;
39242;SDS011;29823;47.404;8.566;2024-03-08T07:16:14;53.10;;;20.40;;
39242;SDS011;29823;47.404;8.566;2024-03-08T07:18:42;44.42;;;19.92;;
39242;SDS011;29823;47.404;8.566;2024-03-08T07:21:10;44.40;;;21.13;;
39242;SDS011;29823;47.404;8.566;2024-03-08T07:23:38;54.40;;;21.85;;
39242;SDS011;29823;47.404;8.566;2024-03-08T07:26:30;52.88;;;21.73;;
39242;SDS011;29823;47.404;8.566;2024-03-08T07:28:59;47.38;;;21.38;;
39242;SDS011;29823;47.404;8.566;2024-03-08T07:31:27;49.03;;;21.25;;
39242;SDS011;29823;47.404;8.566;2024-03-08T07:34:10;47.92;;;22.55;;
39242;SDS011;29823;47.404;8.566;2024-03-08T07:36:39;51.80;;;23.40;;
39242;SDS011;29823;47.404;8.566;2024-03-08T07:39:06;52.88;;;21.73;;
39242;SDS011;29823;47.404;8.566;2024-03-08T07:41:38;51.50;;;23.13;;
39242;SDS011;29823;47.404;8.566;2024-03-08T07:44:08;43.35;;;19.23;;
39242;SDS011;29823;47.404;8.566;2024-03-08T07:46:36;48.15;;;20.88;;
39242;SDS011;29823;47.404;8.566;2024-03-08T07:49:04;44.45;;;19.65;;
39242;SDS011;29823;47.404;8.566;2024-03-08T07:51:32;48.60;;;20.52;;
39242;SDS011;29823;47.404;8.566;2024-03-08T07:54:01;48.05;;;21.15;;
39242;SDS011;29823;47.404;8.566;2024-03-08T07:56:31;44.53;;;19.58;;
39242;SDS011;29823;47.404;8.566;2024-03-08T07:58:58;48.83;;;21.55;;
39242;SDS011;29823;47.404;8.566;2024-03-08T08:01:27;42.08;;;18.95;;
39242;SDS011;29823;47.404;8.566;2024-03-08T08:03:55;49.28;;;20.50;;
39242;SDS011;29823;47.404;8.566;2024-03-08T08:06:23;47.92;;;20.45;;
39242;SDS011;29823;47.404;8.566;2024-03-08T08:08:51;44.78;;;18.63;;
39242;SDS011;29823;47.404;8.566;2024-03-08T08:11:19;41.80;;;18.95;;
39242;SDS011;29823;47.404;8.566;2024-03-08T08:13:47;42.08;;;18.48;;
39242;SDS011;29823;47.404;8.566;2024-03-08T08:16:14;41.00;;;18.27;;
39242;SDS011;29823;47.404;8.566;2024-03-08T08:18:43;38.22;;;17.92;;
39242;SDS011;29823;47.404;8.566;2024-03-08T08:21:12;38.85;;;19.10;;
39242;SDS011;29823;47.404;8.566;2024-03-08T08:23:40;46.80;;;19.90;;
39242;SDS011;29823;47.404;8.566;2024-03-08T08:26:07;33.75;;;17.10;;
39242;SDS011;29823;47.404;8.566;2024-03-08T08:28:37;40.83;;;17.95;;
39242;SDS011;29823;47.404;8.566;2024-03-08T08:31:07;48.17;;;19.38;;
39242;SDS011;29823;47.404;8.566;2024-03-08T08:33:35;41.38;;;17.02;;
39242;SDS011;29823;47.404;8.566;2024-03-08T08:36:04;42.97;;;18.00;;
39242;SDS011;29823;47.404;8.566;2024-03-08T08:38:32;40.10;;;17.77;;
39242;SDS011;29823;47.404;8.566;2024-03-08T08:41:00;31.95;;;15.18;;
39242;SDS011;29823;47.404;8.566;2024-03-08T08:43:29;36.50;;;17.45;;
39242;SDS011;29823;47.404;8.566;2024-03-08T08:45:56;36.42;;;15.68;;
39242;SDS011;29823;47.404;8.566;2024-03-08T08:48:24;35.20;;;16.10;;
39242;SDS011;29823;47.404;8.566;2024-03-08T08:50:51;32.00;;;15.52;;
39242;SDS011;29823;47.404;8.566;2024-03-08T08:53:21;35.60;;;16.63;;
39242;SDS011;29823;47.404;8.566;2024-03-08T08:55:48;32.97;;;15.77;;
39242;SDS011;29823;47.404;8.566;2024-03-08T08:58:16;35.75;;;15.52;;
39242;SDS011;29823;47.404;8.566;2024-03-08T09:00:45;37.10;;;16.13;;
39242;SDS011;29823;47.404;8.566;2024-03-08T09:03:12;36.55;;;17.27;;
39242;SDS011;29823;47.404;8.566;2024-03-08T09:05:40;39.55;;;16.88;;
39242;SDS011;29823;47.404;8.566;2024-03-08T09:08:11;40.40;;;16.73;;
39242;SDS011;29823;47.404;8.566;2024-03-08T09:10:40;33.33;;;15.27;;
39242;SDS011;29823;47.404;8.566;2024-03-08T09:13:09;29.90;;;14.93;;
39242;SDS011;29823;47.404;8.566;2024-03-08T09:15:49;31.38;;;15.95;;
39242;SDS011;29823;47.404;8.566;2024-03-08T09:18:19;27.77;;;15.05;;
39242;SDS011;29823;47.404;8.566;2024-03-08T09:20:46;33.30;;;15.70;;
39242;SDS011;29823;47.404;8.566;2024-03-08T09:23:14;32.65;;;16.20;;
39242;SDS011;29823;47.404;8.566;2024-03-08T09:25:44;37.30;;;16.02;;
39242;SDS011;29823;47.404;8.566;2024-03-08T09:28:13;29.17;;;14.52;;
39242;SDS011;29823;47.404;8.566;2024-03-08T09:30:42;32.17;;;15.90;;
39242;SDS011;29823;47.404;8.566;2024-03-08T09:33:22;31.55;;;16.10;;
39242;SDS011;29823;47.404;8.566;2024-03-08T09:35:50;30.58;;;15.07;;
39242;SDS011;29823;47.404;8.566;2024-03-08T09:38:17;30.58;;;15.05;;
39242;SDS011;29823;47.404;8.566;2024-03-08T09:40:48;29.05;;;14.52;;
39242;SDS011;29823;47.404;8.566;2024-03-08T09:43:16;33.03;;;15.27;;
39242;SDS011;29823;47.404;8.566;2024-03-08T09:45:47;32.17;;;15.52;;
39242;SDS011;29823;47.404;8.566;2024-03-08T09:48:16;33.88;;;16.48;;
39242;SDS011;29823;47.404;8.566;2024-03-08T09:50:45;33.97;;;15.13;;
39242;SDS011;29823;47.404;8.566;2024-03-08T09:53:14;35.00;;;17.35;;
39242;SDS011;29823;47.404;8.566;2024-03-08T09:55:41;35.17;;;16.75;;
39242;SDS011;29823;47.404;8.566;2024-03-08T09:58:12;29.17;;;15.20;;
39242;SDS011;29823;47.404;8.566;2024-03-08T10:01:03;26.77;;;13.38;;
39242;SDS011;29823;47.404;8.566;2024-03-08T10:03:32;31.20;;;15.95;;
39242;SDS011;29823;47.404;8.566;2024-03-08T10:06:01;29.40;;;14.90;;
39242;SDS011;29823;47.404;8.566;2024-03-08T10:08:29;31.05;;;15.82;;
39242;SDS011;29823;47.404;8.566;2024-03-08T10:10:57;31.30;;;15.60;;
39242;SDS011;29823;47.404;8.566;2024-03-08T10:13:26;31.60;;;15.63;;
39242;SDS011;29823;47.404;8.566;2024-03-08T10:15:54;31.88;;;14.55;;
39242;SDS011;29823;47.404;8.566;2024-03-08T10:18:22;31.95;;;17.13;;
39242;SDS011;29823;47.404;8.566;2024-03-08T10:21:01;32.67;;;15.88;;
39242;SDS011;29823;47.404;8.566;2024-03-08T10:23:31;30.08;;;15.80;;
39242;SDS011;29823;47.404;8.566;2024-03-08T10:26:09;34.88;;;15.63;;
39242;SDS011;29823;47.404;8.566;2024-03-08T10:28:38;32.50;;;16.08;;
39242;SDS011;29823;47.404;8.566;2024-03-08T10:31:06;30.45;;;15.98;;
39242;SDS011;29823;47.404;8.566;2024-03-08T10:33:33;30.95;;;15.52;;
39242;SDS011;29823;47.404;8.566;2024-03-08T10:36:01;29.58;;;15.27;;
39242;SDS011;29823;47.404;8.566;2024-03-08T10:38:30;28.42;;;14.52;;
39242;SDS011;29823;47.404;8.566;2024-03-08T10:41:00;31.50;;;15.68;;
39242;SDS011;29823;47.404;8.566;2024-03-08T10:43:28;30.42;;;15.23;;
39242;SDS011;29823;47.404;8.566;2024-03-08T10:46:08;26.75;;;14.52;;
39242;SDS011;29823;47.404;8.566;2024-03-08T10:48:40;24.38;;;14.15;;
39242;SDS011;29823;47.404;8.566;2024-03-08T10:51:09;25.00;;;14.05;;
39242;SDS011;29823;47.404;8.566;2024-03-08T10:53:38;27.65;;;14.05;;
39242;SDS011;29823;47.404;8.566;2024-03-08T10:56:07;26.83;;;14.15;;
39242;SDS011;29823;47.404;8.566;2024-03-08T10:58:36;33.03;;;14.68;;
39242;SDS011;29823;47.404;8.566;2024-03-08T11:01:04;28.88;;;15.05;;
39242;SDS011;29823;47.404;8.566;2024-03-08T11:03:47;28.35;;;15.15;;
39242;SDS011;29823;47.404;8.566;2024-03-08T11:06:21;29.50;;;15.85;;
39242;SDS011;29823;47.404;8.566;2024-03-08T11:08:50;26.55;;;14.40;;
39242;SDS011;29823;47.404;8.566;2024-03-08T11:11:27;25.33;;;14.05;;
39242;SDS011;29823;47.404;8.566;2024-03-08T11:14:00;30.17;;;14.50;;
39242;SDS011;29823;47.404;8.566;2024-03-08T11:16:43;31.42;;;15.55;;
39242;SDS011;29823;47.404;8.566;2024-03-08T11:19:25;25.65;;;13.40;;
39242;SDS011;29823;47.404;8.566;2024-03-08T11:22:02;25.58;;;14.20;;
39242;SDS011;29823;47.404;8.566;2024-03-08T11:24:36;27.27;;;14.35;;
39242;SDS011;29823;47.404;8.566;2024-03-08T11:27:06;26.17;;;14.20;;
39242;SDS011;29823;47.404;8.566;2024-03-08T11:29:36;23.40;;;13.70;;
39242;SDS011;29823;47.404;8.566;2024-03-08T11:32:09;28.67;;;14.60;;
39242;SDS011;29823;47.404;8.566;2024-03-08T11:34:39;24.35;;;14.88;;
39242;SDS011;29823;47.404;8.566;2024-03-08T11:37:10;24.13;;;13.85;;
39242;SDS011;29823;47.404;8.566;2024-03-08T11:39:39;24.85;;;14.27;;
39242;SDS011;29823;47.404;8.566;2024-03-08T11:42:07;22.90;;;14.45;;
39242;SDS011;29823;47.404;8.566;2024-03-08T11:44:37;26.15;;;13.45;;
39242;SDS011;29823;47.404;8.566;2024-03-08T11:47:07;21.70;;;13.98;;
39242;SDS011;29823;47.404;8.566;2024-03-08T11:49:35;26.63;;;14.32;;
39242;SDS011;29823;47.404;8.566;2024-03-08T11:52:04;23.63;;;13.98;;
39242;SDS011;29823;47.404;8.566;2024-03-08T11:54:33;24.50;;;14.75;;
39242;SDS011;29823;47.404;8.566;2024-03-08T11:57:02;25.00;;;14.68;;
39242;SDS011;29823;47.404;8.566;2024-03-08T11:59:31;26.30;;;14.48;;
39242;SDS011;29823;47.404;8.566;2024-03-08T12:02:02;24.67;;;14.23;;
39242;SDS011;29823;47.404;8.566;2024-03-08T12:04:31;23.33;;;13.20;;
39242;SDS011;29823;47.404;8.566;2024-03-08T12:06:59;26.17;;;13.30;;
39242;SDS011;29823;47.404;8.566;2024-03-08T12:09:28;26.10;;;12.82;;
39242;SDS011;29823;47.404;8.566;2024-03-08T12:11:57;25.73;;;15.18;;
39242;SDS011;29823;47.404;8.566;2024-03-08T12:14:25;22.55;;;13.52;;
39242;SDS011;29823;47.404;8.566;2024-03-08T12:16:53;25.25;;;13.63;;
39242;SDS011;29823;47.404;8.566;2024-03-08T12:19:21;23.95;;;14.65;;
39242;SDS011;29823;47.404;8.566;2024-03-08T12:21:48;30.20;;;15.55;;
39242;SDS011;29823;47.404;8.566;2024-03-08T12:24:16;23.45;;;13.88;;
39242;SDS011;29823;47.404;8.566;2024-03-08T12:26:48;22.58;;;13.93;;
39242;SDS011;29823;47.404;8.566;2024-03-08T12:29:16;23.45;;;14.48;;
39242;SDS011;29823;47.404;8.566;2024-03-08T12:31:46;23.65;;;14.90;;
39242;SDS011;29823;47.404;8.566;2024-03-08T12:34:14;24.92;;;14.93;;
39242;SDS011;29823;47.404;8.566;2024-03-08T12:36:44;22.13;;;13.65;;
39242;SDS011;29823;47.404;8.566;2024-03-08T12:39:15;23.95;;;15.00;;
39242;SDS011;29823;47.404;8.566;2024-03-08T12:41:44;23.20;;;13.93;;
39242;SDS011;29823;47.404;8.566;2024-03-08T12:44:14;26.00;;;15.00;;
39242;SDS011;29823;47.404;8.566;2024-03-08T12:46:42;22.55;;;13.98;;
39242;SDS011;29823;47.404;8.566;2024-03-08T12:49:11;22.55;;;13.02;;
39242;SDS011;29823;47.404;8.566;2024-03-08T12:51:39;23.80;;;14.18;;
39242;SDS011;29823;47.404;8.566;2024-03-08T12:54:07;23.02;;;13.68;;
39242;SDS011;29823;47.404;8.566;2024-03-08T12:56:35;26.75;;;15.50;;
39242;SDS011;29823;47.404;8.566;2024-03-08T12:59:04;22.98;;;13.90;;
39242;SDS011;29823;47.404;8.566;2024-03-08T13:01:33;23.98;;;14.18;;
39242;SDS011;29823;47.404;8.566;2024-03-08T13:04:04;21.33;;;12.40;;
39242;SDS011;29823;47.404;8.566;2024-03-08T13:06:32;23.92;;;14.15;;
39242;SDS011;29823;47.404;8.566;2024-03-08T13:09:00;22.83;;;13.77;;
39242;SDS011;29823;47.404;8.566;2024-03-08T13:11:31;24.40;;;14.43;;
39242;SDS011;29823;47.404;8.566;2024-03-08T13:14:03;26.65;;;13.65;;
39242;SDS011;29823;47.404;8.566;2024-03-08T13:16:31;22.88;;;13.90;;
39242;SDS011;29823;47.404;8.566;2024-03-08T13:19:02;22.80;;;13.00;;
39242;SDS011;29823;47.404;8.566;2024-03-08T13:21:31;23.35;;;12.70;;
39242;SDS011;29823;47.404;8.566;2024-03-08T13:23:59;22.83;;;12.93;;
39242;SDS011;29823;47.404;8.566;2024-03-08T13:26:28;26.35;;;13.77;;
39242;SDS011;29823;47.404;8.566;2024-03-08T13:28:59;26.88;;;14.02;;
39242;SDS011;29823;47.404;8.566;2024-03-08T13:31:27;25.55;;;13.20;;
39242;SDS011;29823;47.404;8.566;2024-03-08T13:33:55;26.95;;;13.77;;
39242;SDS011;29823;47.404;8.566;2024-03-08T13:36:26;25.17;;;13.23;;
39242;SDS011;29823;47.404;8.566;2024-03-08T13:38:57;25.27;;;12.95;;
39242;SDS011;29823;47.404;8.566;2024-03-08T13:41:26;28.20;;;13.38;;
39242;SDS011;29823;47.404;8.566;2024-03-08T13:43:57;22.48;;;11.88;;
39242;SDS011;29823;47.404;8.566;2024-03-08T13:46:25;24.45;;;13.30;;
39242;SDS011;29823;47.404;8.566;2024-03-08T13:48:53;30.38;;;14.60;;
39242;SDS011;29823;47.404;8.566;2024-03-08T13:51:21;25.48;;;13.10;;
39242;SDS011;29823;47.404;8.566;2024-03-08T13:53:53;25.70;;;14.35;;
39242;SDS011;29823;47.404;8.566;2024-03-08T13:56:20;24.05;;;13.85;;
39242;SDS011;29823;47.404;8.566;2024-03-08T13:58:48;25.33;;;12.50;;
39242;SDS011;29823;47.404;8.566;2024-03-08T14:01:18;25.48;;;13.48;;
39242;SDS011;29823;47.404;8.566;2024-03-08T14:03:47;25.90;;;13.85;;
39242;SDS011;29823;47.404;8.566;2024-03-08T14:06:15;24.88;;;13.85;;
39242;SDS011;29823;47.404;8.566;2024-03-08T14:08:49;23.48;;;12.68;;
39242;SDS011;29823;47.404;8.566;2024-03-08T14:11:18;25.23;;;13.88;;
39242;SDS011;29823;47.404;8.566;2024-03-08T14:13:46;23.45;;;11.85;;
39242;SDS011;29823;47.404;8.566;2024-03-08T14:16:14;23.23;;;12.63;;
39242;SDS011;29823;47.404;8.566;2024-03-08T14:18:42;23.40;;;12.48;;
39242;SDS011;29823;47.404;8.566;2024-03-08T14:21:09;25.52;;;13.35;;
39242;SDS011;29823;47.404;8.566;2024-03-08T14:23:37;26.25;;;13.13;;
39242;SDS011;29823;47.404;8.566;2024-03-08T14:26:05;29.30;;;14.07;;
39242;SDS011;29823;47.404;8.566;2024-03-08T14:28:35;30.40;;;13.55;;
39242;SDS011;29823;47.404;8.566;2024-03-08T14:31:03;25.95;;;13.77;;
39242;SDS011;29823;47.404;8.566;2024-03-08T14:33:37;25.05;;;12.48;;